Pagina principale
METAR-TAF:

METAR-TAF

Aeroporti :

Aeroporto delle Svalbard-Longyearbyen

Longyearbyen, Norvegia

latitudine: 78-15N, longitudine: 015-28E, altezza: 2 m

Osservazione

Il bollettino è stato emesso 18 minuti fa, alle 17:03 UTC
Vento 17 kt da est/sud-est
Temperature -11°C
Umidità 56%
Pressione 1013 hPa
Visibilità 10 km o più
Scaccia neve basso

METAR: ENSB 141703Z 11017KT 9999 DRSN NSC M11/M18 Q1013 RMK WIND 1400FT 26003KT

Ora: 19:21 (17:21 UTC)

Previsione

Il bollettino è stato emesso 6 ore e 21 minuti fa, alle 11:00 UTC
Previsione valida dal 14 alle 12 UTC al 15 alle 12 UTC
Vento 15 kt da sud/sud-est
Visibilità 10 km o più
Poco nuvoloso ad un'altezza di 5000 ft
Scaccia neve basso
Temporaneamente
dal 14 alle 12 UTC al 14 alle 24 UTC
Vento 20 kt da sud-est con raffiche fino a 30 kt

TAF: ENSB 141100Z 1412/1512 15015KT 9999 DRSN FEW050 TEMPO 1412/1424 13020G30KT

Osservazioni e previsioni meteorologiche di più di 4000 aeroporti (messaggi METAR e TAF).

Le stazioni disponibili sono rappresentate dai dischi gialli e rossi sulla carta.

Puntare il mouse per vedere il nome della stazione.

Clicca sopra per visualizzare le osservazioni e previsioni meteorologiche.

Per cambiare la mappa : fare clic sui pulsanti verdi con una croce nera per ingrandire, il pulsante verde con un trattino per diminuire, o sulla freccia verde per le mappe adiacenti.


METAR-TAF: